createdAt,value
2023-05-10T00:00:54.736Z,11.12
2023-05-10T00:04:07.564Z,11.03
2023-05-10T00:07:19.950Z,11.03
2023-05-10T00:10:32.625Z,10.89
2023-05-10T00:13:44.982Z,10.91
2023-05-10T00:16:58.270Z,11.00
2023-05-10T00:20:11.483Z,11.12
2023-05-10T00:23:24.128Z,11.15
2023-05-10T00:26:38.063Z,11.24
2023-05-10T00:29:50.793Z,11.29
2023-05-10T00:33:04.014Z,11.31
2023-05-10T00:36:16.802Z,11.35
2023-05-10T00:39:29.646Z,11.37
2023-05-10T00:42:42.306Z,11.41
2023-05-10T00:45:54.918Z,11.50
2023-05-10T00:49:07.604Z,11.63
2023-05-10T00:52:20.203Z,11.81
2023-05-10T00:55:33.164Z,11.96
2023-05-10T00:58:45.537Z,12.27
2023-05-10T01:01:58.746Z,12.28
2023-05-10T01:05:11.176Z,12.58
2023-05-10T01:08:23.904Z,12.52
2023-05-10T01:11:36.614Z,12.64
2023-05-10T01:14:49.264Z,12.57
2023-05-10T01:18:02.004Z,12.52
2023-05-10T01:21:39.991Z,12.53
2023-05-10T01:25:20.303Z,12.41
2023-05-10T01:29:07.079Z,12.50
2023-05-10T01:32:41.246Z,12.49
2023-05-10T01:36:07.950Z,12.50
2023-05-10T01:39:30.804Z,12.77
2023-05-10T01:42:52.218Z,12.75
2023-05-10T01:46:11.561Z,12.81
2023-05-10T01:49:28.232Z,12.92
2023-05-10T01:52:44.849Z,12.90
2023-05-10T01:55:58.324Z,13.00
2023-05-10T01:59:14.187Z,13.02
2023-05-10T02:02:27.598Z,12.93
2023-05-10T02:05:40.319Z,12.69
2023-05-10T02:08:52.690Z,12.87
2023-05-10T02:12:05.844Z,12.62
2023-05-10T02:15:22.022Z,12.61
2023-05-10T02:18:35.224Z,12.54
2023-05-10T02:21:47.580Z,12.24
2023-05-10T02:25:00.916Z,12.25
2023-05-10T02:28:14.054Z,12.24
2023-05-10T02:31:26.753Z,12.02
2023-05-10T02:34:39.357Z,11.90
2023-05-10T02:37:52.474Z,11.96
2023-05-10T02:41:05.237Z,11.98
2023-05-10T02:44:19.656Z,12.01
2023-05-10T02:47:32.547Z,11.95
2023-05-10T02:50:45.953Z,11.74
2023-05-10T02:53:58.371Z,11.69
2023-05-10T02:57:12.093Z,11.58
2023-05-10T03:00:25.735Z,11.39
2023-05-10T03:03:38.364Z,11.43
2023-05-10T03:06:50.899Z,11.53
2023-05-10T03:10:04.001Z,11.52
2023-05-10T03:13:28.684Z,11.65
2023-05-10T03:16:48.168Z,11.50
2023-05-10T03:20:05.314Z,11.56
2023-05-10T03:23:22.207Z,11.69
2023-05-10T03:26:34.785Z,11.66
2023-05-10T03:29:47.917Z,11.70
2023-05-10T03:33:06.473Z,11.63
2023-05-10T03:36:20.281Z,11.45
2023-05-10T03:39:33.112Z,11.49
2023-05-10T03:42:46.530Z,12.00
2023-05-10T03:45:58.914Z,11.80
2023-05-10T03:49:11.606Z,11.69
2023-05-10T03:52:23.971Z,11.77
2023-05-10T03:55:37.448Z,11.76
2023-05-10T03:58:49.996Z,11.94
2023-05-10T04:02:03.847Z,11.66
2023-05-10T04:05:16.679Z,11.59
2023-05-10T04:08:29.877Z,11.62
2023-05-10T04:11:42.906Z,11.50
2023-05-10T04:14:55.256Z,11.86
2023-05-10T04:18:08.880Z,11.62
2023-05-10T04:21:21.401Z,12.20
2023-05-10T04:24:33.997Z,11.85
2023-05-10T04:27:46.381Z,11.95
2023-05-10T04:31:08.794Z,12.25
2023-05-10T04:34:22.146Z,12.19
2023-05-10T04:37:34.752Z,12.32
2023-05-10T04:40:47.321Z,12.27
2023-05-10T04:43:59.947Z,12.42
2023-05-10T04:47:14.182Z,12.53
2023-05-10T04:50:26.961Z,12.51
2023-05-10T04:53:39.438Z,12.45
2023-05-10T04:56:52.291Z,12.58
2023-05-10T05:00:05.392Z,12.65
2023-05-10T05:03:18.109Z,12.68
2023-05-10T05:06:30.769Z,12.20
2023-05-10T05:09:43.484Z,12.62
2023-05-10T05:12:55.856Z,12.55
2023-05-10T05:16:08.547Z,12.60
2023-05-10T05:19:22.574Z,12.58
2023-05-10T05:22:36.524Z,12.50
2023-05-10T05:25:48.895Z,12.55
2023-05-10T05:29:01.584Z,12.52
2023-05-10T05:32:14.949Z,12.63
2023-05-10T05:35:27.703Z,12.67
2023-05-10T05:38:40.119Z,12.70
2023-05-10T05:41:52.794Z,12.48
2023-05-10T05:45:05.528Z,12.75
2023-05-10T05:48:18.344Z,12.87
2023-05-10T05:51:30.693Z,12.96
2023-05-10T05:54:43.404Z,12.93
2023-05-10T05:57:55.813Z,12.82
2023-05-10T06:01:08.702Z,13.02
2023-05-10T06:04:21.459Z,13.08
2023-05-10T06:07:34.888Z,13.06
2023-05-10T06:10:47.633Z,13.01
2023-05-10T06:14:00.431Z,12.95
2023-05-10T06:17:13.262Z,12.94
2023-05-10T06:20:25.674Z,13.22
2023-05-10T06:23:38.280Z,13.47
2023-05-10T06:26:51.527Z,13.56
2023-05-10T06:30:12.931Z,13.75
2023-05-10T06:33:26.052Z,14.02
2023-05-10T06:36:38.762Z,13.90
2023-05-10T06:39:51.100Z,14.16
2023-05-10T06:43:03.816Z,14.35
2023-05-10T06:46:16.449Z,14.20
2023-05-10T06:49:29.136Z,14.28
2023-05-10T06:52:41.557Z,14.48
2023-05-10T06:55:54.196Z,14.72
2023-05-10T06:59:07.833Z,14.93
2023-05-10T07:02:20.586Z,14.91
2023-05-10T07:05:33.155Z,15.28
2023-05-10T07:08:47.081Z,15.39
2023-05-10T07:11:59.463Z,15.76
2023-05-10T07:15:12.074Z,15.80
2023-05-10T07:18:24.486Z,16.17
2023-05-10T07:21:37.582Z,16.00
2023-05-10T07:24:51.406Z,15.72
2023-05-10T07:28:06.628Z,15.86
2023-05-10T07:31:19.237Z,15.79
2023-05-10T07:34:32.776Z,15.84
2023-05-10T07:37:45.173Z,16.01
2023-05-10T07:40:57.848Z,16.39
2023-05-10T07:44:10.253Z,16.71
2023-05-10T07:47:23.014Z,16.73
2023-05-10T07:50:35.495Z,16.27
2023-05-10T07:53:48.217Z,16.97
2023-05-10T07:57:01.273Z,16.98
2023-05-10T08:00:14.724Z,16.65
2023-05-10T08:03:27.649Z,16.89
2023-05-10T08:06:40.690Z,16.70
2023-05-10T08:09:54.583Z,17.16
2023-05-10T08:13:08.203Z,17.33
2023-05-10T08:16:21.173Z,17.38
2023-05-10T08:19:33.603Z,17.47
2023-05-10T08:22:47.017Z,17.15
2023-05-10T08:25:59.730Z,17.62
2023-05-10T08:29:12.388Z,17.59
2023-05-10T08:32:24.855Z,17.83
2023-05-10T08:35:37.640Z,17.87
2023-05-10T08:38:52.204Z,17.66
2023-05-10T08:42:05.587Z,17.20
2023-05-10T08:45:18.089Z,18.08
2023-05-10T08:48:32.062Z,17.96
2023-05-10T08:51:46.615Z,18.34
2023-05-10T08:54:59.243Z,18.33
2023-05-10T08:58:11.769Z,18.52
2023-05-10T09:01:24.639Z,18.21
2023-05-10T09:04:37.308Z,18.48
2023-05-10T09:07:50.135Z,18.36
2023-05-10T09:11:02.696Z,18.70
2023-05-10T09:14:15.833Z,19.02
2023-05-10T09:17:28.294Z,18.94
2023-05-10T09:20:41.525Z,19.21
2023-05-10T09:23:55.383Z,18.87
2023-05-10T09:27:08.254Z,18.95
2023-05-10T09:30:27.974Z,18.95
2023-05-10T09:33:49.675Z,18.69
2023-05-10T09:37:03.937Z,19.32
2023-05-10T09:40:20.908Z,19.75
2023-05-10T09:43:38.996Z,19.00
2023-05-10T09:46:53.727Z,18.91
2023-05-10T09:50:07.393Z,19.35
2023-05-10T09:53:20.139Z,19.07
2023-05-10T09:56:36.960Z,18.96
2023-05-10T09:59:51.005Z,19.18
2023-05-10T10:03:04.360Z,19.00
2023-05-10T10:06:29.473Z,19.07
2023-05-10T10:09:42.919Z,19.35
2023-05-10T10:12:56.096Z,19.73
2023-05-10T10:16:09.424Z,19.95
2023-05-10T10:19:22.326Z,20.02
2023-05-10T10:22:35.144Z,20.24
2023-05-10T10:25:49.957Z,20.01
2023-05-10T10:29:17.938Z,20.73
2023-05-10T10:32:58.365Z,20.47
2023-05-10T10:36:11.633Z,20.56
2023-05-10T10:39:26.356Z,21.14
2023-05-10T10:42:47.209Z,21.65
2023-05-10T10:46:16.367Z,21.24
2023-05-10T10:49:28.856Z,21.18
2023-05-10T10:52:42.285Z,21.79
2023-05-10T10:56:06.540Z,21.91
2023-05-10T10:59:28.300Z,21.76
2023-05-10T11:02:49.176Z,21.23
2023-05-10T11:06:02.823Z,21.63
2023-05-10T11:09:15.661Z,22.59
2023-05-10T11:12:28.318Z,21.87
2023-05-10T11:15:40.814Z,21.97
2023-05-10T11:19:14.322Z,21.20
2023-05-10T11:22:26.843Z,21.39
2023-05-10T11:25:45.181Z,21.49
2023-05-10T11:28:57.584Z,21.39
2023-05-10T11:32:10.276Z,21.30
2023-05-10T11:35:22.633Z,21.11
2023-05-10T11:38:35.349Z,21.24
2023-05-10T11:41:49.746Z,21.42
2023-05-10T11:45:02.346Z,21.44
2023-05-10T11:48:14.976Z,21.87
2023-05-10T11:51:27.693Z,21.79
2023-05-10T11:54:52.025Z,21.82
2023-05-10T11:58:04.925Z,21.02
2023-05-10T12:01:17.336Z,20.98
2023-05-10T12:04:30.660Z,20.96
2023-05-10T12:07:43.201Z,20.78
2023-05-10T12:11:05.992Z,20.80
2023-05-10T12:14:20.561Z,21.02
2023-05-10T12:17:33.292Z,20.97
2023-05-10T12:20:45.655Z,21.84
2023-05-10T12:24:03.240Z,21.64
2023-05-10T12:27:15.810Z,21.97
2023-05-10T12:30:31.050Z,21.92
2023-05-10T12:33:44.238Z,22.42
2023-05-10T12:36:56.905Z,22.21
2023-05-10T12:40:10.420Z,21.86
2023-05-10T12:43:23.130Z,21.65
2023-05-10T12:46:35.582Z,21.34
2023-05-10T12:49:48.265Z,21.49
2023-05-10T12:53:00.620Z,21.81
2023-05-10T12:56:13.431Z,22.08
2023-05-10T12:59:26.830Z,21.51
2023-05-10T13:02:39.474Z,21.95
2023-05-10T13:05:51.886Z,21.37
2023-05-10T13:09:04.612Z,22.12
2023-05-10T13:12:17.013Z,21.84
2023-05-10T13:15:29.721Z,20.85
2023-05-10T13:18:42.097Z,20.89
2023-05-10T13:21:54.790Z,22.12
2023-05-10T13:25:07.688Z,22.85
2023-05-10T13:28:20.511Z,23.11
2023-05-10T13:31:32.904Z,23.56
2023-05-10T13:34:45.744Z,23.46
2023-05-10T13:37:58.706Z,22.79
2023-05-10T13:41:11.589Z,23.09
2023-05-10T13:44:24.603Z,23.72
2023-05-10T13:47:37.431Z,23.47
2023-05-10T13:50:49.812Z,23.64
2023-05-10T13:54:05.963Z,24.50
2023-05-10T13:57:18.438Z,23.67
2023-05-10T14:00:31.629Z,23.18
2023-05-10T14:03:44.426Z,24.37
2023-05-10T14:06:56.886Z,24.84
2023-05-10T14:10:09.814Z,24.71
2023-05-10T14:13:22.297Z,23.95
2023-05-10T14:16:34.977Z,23.69
2023-05-10T14:19:47.685Z,23.13
2023-05-10T14:23:01.027Z,22.57
2023-05-10T14:26:13.420Z,22.95
2023-05-10T14:29:26.182Z,23.48
2023-05-10T14:32:38.746Z,22.88
2023-05-10T14:35:51.619Z,23.56
2023-05-10T14:39:04.047Z,23.26
2023-05-10T14:42:16.637Z,23.94
2023-05-10T14:45:29.072Z,23.09
2023-05-10T14:48:41.755Z,24.47
2023-05-10T14:51:54.207Z,23.26
2023-05-10T14:55:07.536Z,23.61
2023-05-10T14:58:19.907Z,23.72
2023-05-10T15:01:34.052Z,22.99
2023-05-10T15:04:46.913Z,22.40
2023-05-10T15:07:59.974Z,22.13
2023-05-10T15:11:12.373Z,22.14
2023-05-10T15:14:25.114Z,21.14
2023-05-10T15:17:37.663Z,21.88
2023-05-10T15:20:50.361Z,22.14
2023-05-10T15:24:02.776Z,22.02
2023-05-10T15:27:15.446Z,23.47
2023-05-10T15:30:27.834Z,23.29
2023-05-10T15:33:40.498Z,23.54
2023-05-10T15:36:52.893Z,24.13
2023-05-10T15:40:06.172Z,24.37
2023-05-10T15:43:18.595Z,24.66
2023-05-10T15:46:31.372Z,24.16
2023-05-10T15:49:43.866Z,24.89
2023-05-10T15:52:56.514Z,23.89
2023-05-10T15:56:08.869Z,24.22
2023-05-10T15:59:21.513Z,24.53
2023-05-10T16:02:34.092Z,24.77
2023-05-10T16:05:46.977Z,24.80
2023-05-10T16:08:59.394Z,24.21
2023-05-10T16:12:12.094Z,23.81
2023-05-10T16:15:24.480Z,22.93
2023-05-10T16:18:37.328Z,22.71
2023-05-10T16:21:50.043Z,22.22
2023-05-10T16:25:02.734Z,21.80
2023-05-10T16:28:15.127Z,21.42
2023-05-10T16:31:27.908Z,21.47
2023-05-10T16:34:40.419Z,21.13
2023-05-10T16:37:53.175Z,21.03
2023-05-10T16:41:06.735Z,20.74
2023-05-10T16:44:20.815Z,20.39
2023-05-10T16:47:34.228Z,20.37
2023-05-10T16:50:47.883Z,20.64
2023-05-10T16:54:00.334Z,20.92
2023-05-10T16:57:12.990Z,20.83
2023-05-10T17:00:26.004Z,21.16
2023-05-10T17:03:39.012Z,21.47
2023-05-10T17:06:51.760Z,21.33
2023-05-10T17:10:04.621Z,21.35
2023-05-10T17:13:17.358Z,20.93
2023-05-10T17:16:30.111Z,21.05
2023-05-10T17:19:45.411Z,20.93
2023-05-10T17:22:58.158Z,20.98
2023-05-10T17:26:10.562Z,20.50
2023-05-10T17:29:23.614Z,20.42
2023-05-10T17:32:36.168Z,20.22
2023-05-10T17:35:49.041Z,20.15
2023-05-10T17:39:01.366Z,19.66
2023-05-10T17:42:17.470Z,19.21
2023-05-10T17:45:30.525Z,19.18
2023-05-10T17:48:43.527Z,18.87
2023-05-10T17:51:55.924Z,18.54
2023-05-10T17:55:08.849Z,18.29
2023-05-10T17:58:21.211Z,18.05
2023-05-10T18:01:34.768Z,17.71
2023-05-10T18:04:49.443Z,17.72
2023-05-10T18:08:01.963Z,17.56
2023-05-10T18:11:14.574Z,17.46
2023-05-10T18:14:39.793Z,17.25
2023-05-10T18:17:53.538Z,17.11
2023-05-10T18:21:05.955Z,16.99
2023-05-10T18:24:37.066Z,16.76
2023-05-10T18:27:52.053Z,16.72
2023-05-10T18:31:04.712Z,16.50
2023-05-10T18:34:17.065Z,16.48
2023-05-10T18:37:29.731Z,16.35
2023-05-10T18:40:42.095Z,16.15
2023-05-10T18:43:54.795Z,16.16
2023-05-10T18:47:07.202Z,16.05
2023-05-10T18:50:19.952Z,16.01
2023-05-10T18:53:32.638Z,15.92
2023-05-10T18:56:45.421Z,15.87
2023-05-10T18:59:57.980Z,15.86
2023-05-10T19:03:10.771Z,15.87
2023-05-10T19:06:23.185Z,15.74
2023-05-10T19:09:35.887Z,15.58
2023-05-10T19:12:48.256Z,15.74
2023-05-10T19:16:06.166Z,15.57
2023-05-10T19:19:20.645Z,15.68
2023-05-10T19:22:47.237Z,15.60
2023-05-10T19:26:06.359Z,15.56
2023-05-10T19:29:19.878Z,15.61
2023-05-10T19:32:32.276Z,15.53
2023-05-10T19:35:45.288Z,15.62
2023-05-10T19:38:57.760Z,15.55
2023-05-10T19:42:10.377Z,15.56
2023-05-10T19:45:22.840Z,15.60
2023-05-10T19:48:35.536Z,15.55
2023-05-10T19:51:47.908Z,15.47
2023-05-10T19:55:00.613Z,15.55
2023-05-10T19:58:13.343Z,15.53
2023-05-10T20:01:26.073Z,15.54
2023-05-10T20:04:38.824Z,15.43
2023-05-10T20:07:53.453Z,15.44
2023-05-10T20:11:06.065Z,15.53
2023-05-10T20:14:18.503Z,15.36
2023-05-10T20:17:31.305Z,15.45
2023-05-10T20:20:44.135Z,15.29
2023-05-10T20:23:56.859Z,15.34
2023-05-10T20:27:09.267Z,15.16
2023-05-10T20:30:22.210Z,15.21
2023-05-10T20:33:34.585Z,15.19
2023-05-10T20:36:47.259Z,15.06
2023-05-10T20:39:59.876Z,15.05
2023-05-10T20:43:15.123Z,15.03
2023-05-10T20:46:27.597Z,14.87
2023-05-10T20:49:40.669Z,14.84
2023-05-10T20:52:53.031Z,14.73
2023-05-10T20:56:05.864Z,14.76
2023-05-10T20:59:18.707Z,14.74
2023-05-10T21:02:31.413Z,14.71
2023-05-10T21:05:43.833Z,14.60
2023-05-10T21:08:56.496Z,14.53
2023-05-10T21:12:09.269Z,14.55
2023-05-10T21:15:25.640Z,14.43
2023-05-10T21:18:38.054Z,14.27
2023-05-10T21:21:50.752Z,14.23
2023-05-10T21:25:03.148Z,14.06
2023-05-10T21:28:15.904Z,14.03
2023-05-10T21:31:28.296Z,13.94
2023-05-10T21:34:40.969Z,13.87
2023-05-10T21:37:53.412Z,13.58
2023-05-10T21:41:09.159Z,13.32
2023-05-10T21:44:21.502Z,13.06
2023-05-10T21:47:34.337Z,12.93
2023-05-10T21:50:47.924Z,12.83
2023-05-10T21:54:00.594Z,12.70
2023-05-10T21:57:12.961Z,12.62
2023-05-10T22:00:25.592Z,12.58
2023-05-10T22:03:38.213Z,12.63
2023-05-10T22:06:50.554Z,12.69
2023-05-10T22:10:03.213Z,12.52
2023-05-10T22:13:15.926Z,12.09
2023-05-10T22:16:29.048Z,12.25
2023-05-10T22:19:41.538Z,12.35
2023-05-10T22:22:55.119Z,12.41
2023-05-10T22:26:07.476Z,12.49
2023-05-10T22:29:20.106Z,12.76
2023-05-10T22:32:33.059Z,12.77
2023-05-10T22:35:45.755Z,12.84
2023-05-10T22:38:58.237Z,12.97
2023-05-10T22:42:10.944Z,13.02
2023-05-10T22:45:23.363Z,13.23
2023-05-10T22:48:36.070Z,13.20
2023-05-10T22:51:48.429Z,13.48
2023-05-10T22:55:01.145Z,13.57
2023-05-10T22:58:13.505Z,13.63
2023-05-10T23:01:26.177Z,13.55
2023-05-10T23:04:38.574Z,13.73
2023-05-10T23:07:53.422Z,13.75
2023-05-10T23:11:05.802Z,13.97
2023-05-10T23:14:18.493Z,13.79
2023-05-10T23:17:30.899Z,13.91
2023-05-10T23:20:43.593Z,13.91
2023-05-10T23:23:56.033Z,13.90
2023-05-10T23:27:08.746Z,13.86
2023-05-10T23:30:21.208Z,13.84
2023-05-10T23:33:33.913Z,13.78
2023-05-10T23:36:46.310Z,13.87
2023-05-10T23:39:59.136Z,13.86
2023-05-10T23:43:11.525Z,13.67
2023-05-10T23:46:24.364Z,13.71
2023-05-10T23:49:36.939Z,13.70
2023-05-10T23:52:49.602Z,13.98
2023-05-10T23:56:07.828Z,13.81
2023-05-10T23:59:20.678Z,13.89
